Time;durP1;ratioP1;P1;durP2;ratioP2;P2;SDS_P1;SDS_P2;PMS_P1;PMS_P2;Temp;Humidity;BMP_temperature;BMP_pressure;BME280_temperature;BME280_humidity;BME280_pressure;Samples;Min_cycle;Max_cycle;Signal;HPM_P1;HPM_P2
2024/02/11 00:00:14;;;;;;;6.22;2.97;;;;;;;4.76;100.00;98281.97;5114048;28;20040;-76
2024/02/11 00:02:40;;;;;;;4.22;2.50;;;;;;;4.77;100.00;98275.59;5080382;28;20035;-75
2024/02/11 00:05:09;;;;;;;7.97;2.88;;;;;;;4.76;100.00;98292.59;5097106;28;20038;-75
2024/02/11 00:07:42;;;;;;;4.63;2.33;;;;;;;4.74;100.00;98284.00;5080751;28;20043;-75
2024/02/11 00:10:09;;;;;;;4.57;2.00;;;;;;;4.76;100.00;98283.78;5098445;28;20187;-75
2024/02/11 00:12:35;;;;;;;4.68;1.60;;;;;;;4.87;100.00;98291.22;5113707;28;20035;-75
2024/02/11 00:15:03;;;;;;;5.82;1.80;;;;;;;4.92;100.00;98298.56;5080157;28;20122;-75
2024/02/11 00:17:29;;;;;;;5.00;1.45;;;;;;;4.93;100.00;98300.25;5097061;28;20039;-75
2024/02/11 00:19:54;;;;;;;4.05;1.70;;;;;;;4.93;100.00;98301.06;5080182;28;20064;-75
2024/02/11 00:22:20;;;;;;;4.95;1.40;;;;;;;4.92;100.00;98299.44;5080220;28;20065;-75
2024/02/11 00:24:45;;;;;;;3.22;1.35;;;;;;;4.94;100.00;98309.84;5096420;28;20043;-75
2024/02/11 00:27:12;;;;;;;3.67;1.20;;;;;;;4.94;100.00;98315.19;5114538;28;20035;-75
2024/02/11 00:29:40;;;;;;;3.38;1.33;;;;;;;4.93;100.00;98317.03;5113564;28;20042;-76
2024/02/11 00:32:06;;;;;;;7.38;1.35;;;;;;;4.94;100.00;98316.00;5113769;28;20077;-75
2024/02/11 00:34:32;;;;;;;1.15;0.82;;;;;;;4.92;100.00;98327.88;5080167;28;20106;-75
2024/02/11 00:36:58;;;;;;;2.50;0.93;;;;;;;4.88;100.00;98324.78;5079467;28;20035;-76
2024/02/11 00:39:23;;;;;;;3.17;0.80;;;;;;;4.90;100.00;98328.09;5079886;28;20398;-75
2024/02/11 00:41:50;;;;;;;2.30;0.82;;;;;;;4.84;100.00;98329.72;5096613;28;20024;-75
2024/02/11 00:44:16;;;;;;;5.45;1.52;;;;;;;4.75;100.00;98335.38;5096799;28;20141;-75
2024/02/11 00:46:43;;;;;;;3.65;0.82;;;;;;;4.71;100.00;98331.47;5113385;28;20463;-76
2024/02/11 00:49:09;;;;;;;2.17;0.70;;;;;;;4.59;100.00;98334.69;5079618;28;20061;-75
2024/02/11 00:51:35;;;;;;;5.45;0.90;;;;;;;4.51;100.00;98340.19;5079950;28;20028;-75
2024/02/11 00:54:03;;;;;;;3.20;1.45;;;;;;;4.44;100.00;98336.66;5096666;28;20447;-75
2024/02/11 00:56:30;;;;;;;2.47;0.90;;;;;;;4.41;100.00;98353.00;5113409;28;20482;-75
2024/02/11 00:58:57;;;;;;;3.58;1.05;;;;;;;4.33;100.00;98348.66;5097531;28;20460;-76
2024/02/11 01:01:23;;;;;;;7.13;1.20;;;;;;;4.26;100.00;98349.63;5079143;28;20054;-75
2024/02/11 01:03:56;;;;;;;4.35;1.08;;;;;;;4.17;100.00;98362.25;5096457;28;20032;-75
2024/02/11 01:06:23;;;;;;;2.17;0.88;;;;;;;4.04;100.00;98351.53;5112892;28;20130;-75
2024/02/11 01:08:49;;;;;;;2.85;1.00;;;;;;;4.02;100.00;98353.53;5095870;28;20052;-75
2024/02/11 01:11:19;;;;;;;3.70;1.38;;;;;;;3.92;100.00;98359.22;5113202;28;20471;-75
2024/02/11 01:13:45;;;;;;;2.58;1.08;;;;;;;3.85;100.00;98361.81;5079807;28;20055;-75
2024/02/11 01:16:11;;;;;;;2.97;1.73;;;;;;;3.74;100.00;98357.81;5096306;28;20122;-75
2024/02/11 01:18:37;;;;;;;2.35;1.75;;;;;;;3.72;100.00;98361.69;5079361;28;20040;-75
2024/02/11 01:21:07;;;;;;;3.85;1.77;;;;;;;3.66;100.00;98359.81;5096154;28;20028;-75
2024/02/11 01:23:37;;;;;;;1.40;1.08;;;;;;;3.64;100.00;98375.09;5096398;28;20138;-76
2024/02/11 01:26:04;;;;;;;3.53;1.60;;;;;;;3.60;100.00;98371.16;5095884;28;20059;-74
2024/02/11 01:28:30;;;;;;;5.38;1.23;;;;;;;3.58;100.00;98370.56;5112234;28;20472;-75
2024/02/11 01:30:57;;;;;;;5.18;1.42;;;;;;;3.58;100.00;98371.38;5079190;28;20111;-75
2024/02/11 01:33:23;;;;;;;3.90;1.33;;;;;;;3.53;100.00;98377.25;5095661;28;20038;-75
2024/02/11 01:35:49;;;;;;;3.95;1.50;;;;;;;3.45;100.00;98377.38;5112414;28;20036;-75
2024/02/11 01:38:15;;;;;;;6.68;1.48;;;;;;;3.41;100.00;98378.75;5078562;28;20411;-75
2024/02/11 01:40:41;;;;;;;4.68;1.35;;;;;;;3.42;100.00;98383.06;5078864;28;20031;-75
2024/02/11 01:43:10;;;;;;;5.88;1.30;;;;;;;3.36;100.00;98383.81;5078908;28;20391;-75
2024/02/11 01:45:36;;;;;;;6.03;1.67;;;;;;;3.30;100.00;98384.56;5079388;28;20084;-75
2024/02/11 01:48:06;;;;;;;4.78;1.60;;;;;;;3.28;100.00;98395.38;5095358;28;20459;-75
2024/02/11 01:50:37;;;;;;;9.23;1.40;;;;;;;3.18;100.00;98397.50;5080034;28;20036;-76
2024/02/11 01:53:04;;;;;;;5.13;1.60;;;;;;;3.05;100.00;98395.50;5095300;28;20107;-75
2024/02/11 01:55:31;;;;;;;4.28;1.45;;;;;;;2.97;100.00;98398.28;5079269;28;20032;-75
2024/02/11 01:57:58;;;;;;;3.40;1.60;;;;;;;2.92;100.00;98405.97;5079110;28;20470;-75
2024/02/11 02:00:24;;;;;;;3.30;1.63;;;;;;;2.80;100.00;98391.50;5112053;28;20035;-75
2024/02/11 02:02:56;;;;;;;3.75;1.58;;;;;;;2.74;100.00;98408.16;5096418;28;20032;-75
2024/02/11 02:05:22;;;;;;;3.17;1.70;;;;;;;2.69;100.00;98405.25;5095630;28;20032;-75
2024/02/11 02:07:47;;;;;;;10.27;2.30;;;;;;;2.68;100.00;98404.41;5078551;28;20483;-75
2024/02/11 02:10:14;;;;;;;4.90;1.83;;;;;;;2.70;100.00;98405.06;5095220;28;20046;-76
2024/02/11 02:12:42;;;;;;;3.05;1.50;;;;;;;2.76;100.00;98411.47;5078499;28;20093;-75
2024/02/11 02:15:08;;;;;;;8.35;1.60;;;;;;;2.77;100.00;98402.50;5111944;28;20085;-75
2024/02/11 02:17:35;;;;;;;5.50;1.20;;;;;;;2.82;100.00;98410.72;5078470;28;20051;-76
2024/02/11 02:20:07;;;;;;;4.30;1.30;;;;;;;2.88;100.00;98420.59;5079675;28;20035;-75
2024/02/11 02:22:33;;;;;;;3.55;1.33;;;;;;;2.88;100.00;98425.91;5078688;28;20027;-75
2024/02/11 02:24:59;;;;;;;5.10;1.35;;;;;;;2.84;100.00;98427.28;5111936;28;20127;-75
2024/02/11 02:27:27;;;;;;;8.13;1.90;;;;;;;2.78;100.00;98430.66;5078808;28;20050;-75
2024/02/11 02:29:53;;;;;;;6.38;1.63;;;;;;;2.72;100.00;98428.75;5095269;28;20040;-76
2024/02/11 02:32:19;;;;;;;5.53;1.60;;;;;;;2.75;100.00;98436.34;5078513;28;20043;-75
2024/02/11 02:34:46;;;;;;;3.45;1.75;;;;;;;2.75;100.00;98433.69;5079677;28;20088;-75
2024/02/11 02:37:12;;;;;;;3.70;1.40;;;;;;;2.83;100.00;98434.44;5115913;28;20019;-75
2024/02/11 02:39:38;;;;;;;5.80;1.25;;;;;;;2.91;100.00;98436.19;5081810;28;20111;-75
2024/02/11 02:42:04;;;;;;;8.43;1.63;;;;;;;2.77;100.00;98429.84;5082059;28;20364;-75
2024/02/11 02:44:33;;;;;;;2.83;1.20;;;;;;;2.62;100.00;98439.66;5082503;28;20444;-74
2024/02/11 02:46:59;;;;;;;5.15;1.33;;;;;;;2.50;100.00;98435.78;5082067;28;20028;-75
2024/02/11 02:49:26;;;;;;;3.78;1.00;;;;;;;2.40;100.00;98444.00;5081951;28;20027;-75
2024/02/11 02:51:51;;;;;;;3.83;1.20;;;;;;;2.30;100.00;98438.97;5082137;28;20104;-75
2024/02/11 02:54:17;;;;;;;3.40;1.08;;;;;;;2.37;100.00;98447.00;5081890;28;20475;-75
2024/02/11 02:56:43;;;;;;;6.32;1.42;;;;;;;2.54;100.00;98455.63;5098486;28;20031;-75
2024/02/11 02:59:08;;;;;;;4.85;1.08;;;;;;;2.69;100.00;98460.97;5081947;28;20035;-75
2024/02/11 03:01:38;;;;;;;4.90;1.60;;;;;;;2.71;100.00;98453.66;5098303;28;20562;-75
2024/02/11 03:04:08;;;;;;;2.05;1.10;;;;;;;2.78;100.00;98457.19;5115448;28;20077;-75
2024/02/11 03:06:34;;;;;;;5.18;1.42;;;;;;;2.80;100.00;98455.19;5082574;28;20097;-75
2024/02/11 03:09:08;;;;;;;4.53;1.40;;;;;;;2.79;100.00;98456.22;5098425;28;20024;-75
2024/02/11 03:11:34;;;;;;;7.90;1.58;;;;;;;2.61;100.00;98452.06;5099424;28;20040;-75
2024/02/11 03:14:04;;;;;;;6.05;2.38;;;;;;;2.49;100.00;98453.53;5081513;28;20383;-75
2024/02/11 03:16:30;;;;;;;4.82;1.67;;;;;;;2.32;100.00;98454.69;5081285;28;20039;-75
2024/02/11 03:18:55;;;;;;;2.90;1.40;;;;;;;2.27;100.00;98462.34;5081554;28;20088;-75
2024/02/11 03:21:21;;;;;;;5.90;3.13;;;;;;;2.23;100.00;98464.53;5081341;28;20332;-76
2024/02/11 03:23:47;;;;;;;5.95;2.38;;;;;;;2.13;100.00;98461.31;5081217;28;20047;-75
2024/02/11 03:26:12;;;;;;;4.22;1.55;;;;;;;2.02;100.00;98459.91;5081234;28;20040;-75
2024/02/11 03:28:39;;;;;;;3.22;1.98;;;;;;;2.01;100.00;98460.06;5098057;28;20035;-75
2024/02/11 03:31:05;;;;;;;6.40;1.90;;;;;;;2.00;100.00;98466.38;5098083;28;20069;-75
2024/02/11 03:33:31;;;;;;;6.95;2.35;;;;;;;1.93;100.00;98468.91;5098019;28;20031;-75
2024/02/11 03:35:57;;;;;;;6.22;2.03;;;;;;;1.88;100.00;98474.75;5081162;28;20368;-76
2024/02/11 03:38:23;;;;;;;5.70;2.97;;;;;;;1.77;100.00;98480.44;5114590;28;20035;-75
2024/02/11 03:40:53;;;;;;;7.10;2.78;;;;;;;1.57;100.00;98476.59;5080956;28;20031;-75
2024/02/11 03:43:20;;;;;;;6.15;2.30;;;;;;;1.49;100.00;98474.81;5081128;28;20055;-75
2024/02/11 03:45:46;;;;;;;4.35;2.35;;;;;;;1.53;100.00;98473.44;5080365;28;20039;-75
2024/02/11 03:48:13;;;;;;;8.48;2.95;;;;;;;1.70;100.00;98474.19;5096965;28;20028;-75
2024/02/11 03:50:39;;;;;;;10.82;4.70;;;;;;;1.68;100.00;98466.41;5080625;28;20031;-75
2024/02/11 03:53:06;;;;;;;6.15;3.72;;;;;;;1.66;100.00;98467.59;5080714;28;20023;-75
2024/02/11 03:55:32;;;;;;;15.52;5.60;;;;;;;1.64;100.00;98470.44;5097552;28;20024;-75
2024/02/11 03:58:04;;;;;;;9.15;3.67;;;;;;;1.54;100.00;98475.13;5097487;28;20038;-75
2024/02/11 04:00:31;;;;;;;8.13;2.42;;;;;;;1.39;100.00;98474.19;5098460;28;20035;-75
2024/02/11 04:03:00;;;;;;;5.32;2.28;;;;;;;1.20;100.00;98484.22;5080719;28;20515;-75
2024/02/11 04:05:28;;;;;;;3.55;1.60;;;;;;;0.97;100.00;98481.47;5097530;28;20531;-75
2024/02/11 04:07:57;;;;;;;10.27;1.40;;;;;;;0.78;100.00;98490.63;5097265;28;20084;-75
2024/02/11 04:10:28;;;;;;;4.28;1.23;;;;;;;0.79;100.00;98494.09;5097247;28;20023;-75
2024/02/11 04:12:54;;;;;;;6.10;1.30;;;;;;;0.93;100.00;98493.41;5081116;28;20040;-75
2024/02/11 04:15:24;;;;;;;1.77;1.20;;;;;;;1.20;100.00;98500.09;5080430;28;20126;-75
2024/02/11 04:17:56;;;;;;;7.80;1.30;;;;;;;1.36;100.00;98495.72;5097224;28;20078;-74
2024/02/11 04:20:27;;;;;;;3.15;1.13;;;;;;;1.34;100.00;98493.25;5097514;28;20035;-75
2024/02/11 04:23:00;;;;;;;7.07;1.50;;;;;;;1.16;100.00;98503.25;5080828;28;20115;-75
2024/02/11 04:25:32;;;;;;;2.90;1.15;;;;;;;1.10;100.00;98500.28;5063842;28;20475;-75
2024/02/11 04:28:01;;;;;;;3.20;1.52;;;;;;;0.97;100.00;98500.00;5080224;28;20065;-75
2024/02/11 04:30:27;;;;;;;6.72;1.17;;;;;;;0.90;100.00;98496.41;5096517;28;20053;-75
2024/02/11 04:32:53;;;;;;;7.93;1.23;;;;;;;0.84;100.00;98502.34;5080091;28;20039;-75
2024/02/11 04:35:24;;;;;;;3.33;1.25;;;;;;;0.80;100.00;98506.34;5096667;28;20043;-75
2024/02/11 04:37:52;;;;;;;3.17;1.20;;;;;;;0.83;100.00;98509.47;5097274;28;20032;-75
2024/02/11 04:40:18;;;;;;;2.53;0.90;;;;;;;0.75;100.00;98500.72;5096937;28;20033;-75
2024/02/11 04:42:53;;;;;;;2.67;1.00;;;;;;;0.72;100.00;98515.09;5079895;28;20043;-75
2024/02/11 04:45:26;;;;;;;7.30;1.30;;;;;;;0.68;100.00;98516.44;5080781;28;20043;-75
2024/02/11 04:47:59;;;;;;;2.45;1.10;;;;;;;0.70;100.00;98518.91;5113062;28;20110;-75
2024/02/11 04:50:29;;;;;;;4.53;1.23;;;;;;;0.70;100.00;98513.63;5113079;28;20399;-75
2024/02/11 04:52:56;;;;;;;4.82;1.00;;;;;;;0.62;100.00;98522.41;5079485;28;20043;-75
2024/02/11 04:55:29;;;;;;;7.25;1.17;;;;;;;0.56;100.00;98517.78;5113255;28;20527;-75
2024/02/11 04:57:58;;;;;;;1.95;1.00;;;;;;;0.50;100.00;98524.53;5097297;28;20027;-75
2024/02/11 05:00:28;;;;;;;4.30;1.30;;;;;;;0.43;100.00;98529.69;5079517;28;20127;-75
2024/02/11 05:02:55;;;;;;;3.78;1.05;;;;;;;0.38;100.00;98532.00;5095898;28;20471;-75
2024/02/11 05:05:31;;;;;;;3.92;1.25;;;;;;;0.40;100.00;98524.72;5112974;28;20365;-75
2024/02/11 05:08:00;;;;;;;2.42;0.98;;;;;;;0.67;100.00;98524.53;5080423;28;20043;-75
2024/02/11 05:10:37;;;;;;;3.75;1.00;;;;;;;0.86;100.00;98535.56;5096330;28;20038;-75
2024/02/11 05:13:11;;;;;;;3.72;1.23;;;;;;;1.02;100.00;98533.91;5113084;28;20039;-75
2024/02/11 05:15:44;;;;;;;1.15;0.90;;;;;;;1.10;100.00;98537.34;5096261;28;20043;-75
2024/02/11 05:18:11;;;;;;;6.18;1.27;;;;;;;1.10;100.00;98547.09;5079247;28;20038;-75
2024/02/11 05:20:38;;;;;;;6.35;1.10;;;;;;;1.02;100.00;98540.00;5079307;28;20046;-76
2024/02/11 05:23:09;;;;;;;4.35;1.25;;;;;;;0.89;100.00;98547.66;5096033;28;20031;-75
2024/02/11 05:25:39;;;;;;;2.03;0.88;;;;;;;0.86;100.00;98548.81;5080514;28;20475;-74
2024/02/11 05:28:09;;;;;;;10.35;1.10;;;;;;;0.98;100.00;98554.59;5112609;28;20540;-74
2024/02/11 05:30:42;;;;;;;1.70;0.95;;;;;;;1.12;100.00;98555.72;5112731;28;20482;-75
2024/02/11 05:33:08;;;;;;;3.80;0.95;;;;;;;1.21;100.00;98559.16;5096952;28;20027;-75
2024/02/11 05:35:37;;;;;;;2.70;0.82;;;;;;;1.33;100.00;98576.34;5079062;28;20073;-74
2024/02/11 05:38:10;;;;;;;7.38;1.17;;;;;;;1.74;100.00;98563.72;5079214;28;20023;-75
2024/02/11 05:40:48;;;;;;;4.65;0.90;;;;;;;2.09;100.00;98560.72;5095634;28;20035;-75
2024/02/11 05:43:23;;;;;;;5.07;1.35;;;;;;;2.22;100.00;98568.09;5112742;28;20064;-75
2024/02/11 05:45:49;;;;;;;2.40;1.23;;;;;;;2.39;100.00;98570.47;5112711;28;20035;-75
2024/02/11 05:48:16;;;;;;;5.38;0.80;;;;;;;2.53;100.00;98574.19;5078521;28;20024;-75
2024/02/11 05:50:45;;;;;;;4.03;1.05;;;;;;;2.55;100.00;98572.19;5095645;28;20034;-75
2024/02/11 05:53:11;;;;;;;1.90;0.88;;;;;;;2.60;100.00;98583.09;5079291;28;20039;-74
2024/02/11 05:55:38;;;;;;;8.88;1.25;;;;;;;2.84;100.00;98599.81;5095110;28;20020;-75
2024/02/11 05:58:04;;;;;;;4.32;0.90;;;;;;;3.03;100.00;98599.28;5112099;28;20414;-75
2024/02/11 06:00:32;;;;;;;2.67;1.02;;;;;;;3.12;100.00;98588.59;5078735;28;20036;-75
2024/02/11 06:02:59;;;;;;;2.70;0.57;;;;;;;3.18;100.00;98588.72;5095965;28;20027;-75
2024/02/11 06:05:25;;;;;;;6.70;1.25;;;;;;;3.16;100.00;98598.69;5078606;28;20058;-75
2024/02/11 06:07:54;;;;;;;3.05;0.73;;;;;;;3.03;100.00;98596.63;5078246;28;20031;-75
2024/02/11 06:10:22;;;;;;;4.78;1.02;;;;;;;2.86;100.00;98593.31;5098101;28;20038;-76
2024/02/11 06:12:48;;;;;;;5.82;0.80;;;;;;;2.68;100.00;98592.81;5099725;28;20503;-75
2024/02/11 06:15:16;;;;;;;2.53;0.70;;;;;;;2.57;100.00;98590.59;5099732;28;20066;-75
2024/02/11 06:17:42;;;;;;;3.08;0.80;;;;;;;2.40;100.00;98590.69;5100098;28;20051;-76
2024/02/11 06:20:13;;;;;;;3.63;0.90;;;;;;;2.29;100.00;98585.78;5099784;28;20103;-77
2024/02/11 06:22:42;;;;;;;0.98;0.90;;;;;;;2.26;100.00;98598.59;5099876;28;20020;-75
2024/02/11 06:25:09;;;;;;;2.85;0.73;;;;;;;2.31;100.00;98599.72;5082507;28;20031;-74
2024/02/11 06:27:38;;;;;;;3.25;0.77;;;;;;;2.20;100.00;98606.25;5099211;28;20030;-75
2024/02/11 06:30:11;;;;;;;2.28;0.75;;;;;;;2.07;100.00;98602.53;5099597;28;20031;-76
2024/02/11 06:32:41;;;;;;;1.60;0.80;;;;;;;1.96;100.00;98606.38;5116024;28;20028;-76
2024/02/11 06:35:09;;;;;;;1.45;0.98;;;;;;;1.83;100.00;98616.72;5117598;28;20023;-75
2024/02/11 06:37:39;;;;;;;5.60;1.30;;;;;;;1.70;100.00;98611.97;5099488;28;20463;-75
2024/02/11 06:40:10;;;;;;;3.05;0.80;;;;;;;1.62;100.00;98619.94;5098588;28;20442;-74
2024/02/11 06:42:39;;;;;;;1.73;0.95;;;;;;;1.63;100.00;98622.41;5116016;28;20020;-76
2024/02/11 06:45:08;;;;;;;5.60;0.90;;;;;;;1.72;100.00;98616.09;5115536;28;20024;-76
2024/02/11 06:47:37;;;;;;;2.42;0.77;;;;;;;1.87;100.00;98623.31;5115802;28;20055;-74
2024/02/11 06:50:04;;;;;;;2.75;1.00;;;;;;;1.82;100.00;98618.50;5098554;28;20463;-75
2024/02/11 06:52:30;;;;;;;1.30;0.75;;;;;;;1.85;100.00;98620.00;5081957;28;20077;-77
2024/02/11 06:54:55;;;;;;;2.47;0.70;;;;;;;1.94;100.00;98625.09;5115347;28;20055;-74
2024/02/11 06:57:22;;;;;;;4.82;1.00;;;;;;;2.08;100.00;98615.56;5098821;28;20034;-76
2024/02/11 06:59:48;;;;;;;2.05;1.10;;;;;;;2.23;100.00;98628.09;5081832;28;20085;-76
2024/02/11 07:02:14;;;;;;;0.90;0.80;;;;;;;2.38;100.00;98632.50;5098636;28;20032;-74
2024/02/11 07:04:41;;;;;;;2.92;0.70;;;;;;;2.47;100.00;98629.78;5115108;28;20365;-75
2024/02/11 07:07:09;;;;;;;0.82;0.60;;;;;;;2.54;100.00;98641.31;5098332;28;20024;-75
2024/02/11 07:09:39;;;;;;;2.22;0.70;;;;;;;2.45;100.00;98634.44;5082214;28;20028;-74
2024/02/11 07:12:06;;;;;;;3.47;0.80;;;;;;;2.26;100.00;98633.06;5081484;28;20423;-75
2024/02/11 07:14:32;;;;;;;4.60;1.05;;;;;;;2.14;100.00;98651.16;5115228;28;20468;-76
2024/02/11 07:17:00;;;;;;;7.25;0.98;;;;;;;2.09;100.00;98648.22;5097919;28;20039;-74
2024/02/11 07:19:26;;;;;;;2.15;0.60;;;;;;;2.17;100.00;98642.88;5098199;28;20063;-76
2024/02/11 07:21:52;;;;;;;3.17;0.73;;;;;;;2.44;100.00;98661.97;5080298;28;20028;-75
2024/02/11 07:24:19;;;;;;;2.40;0.68;;;;;;;2.63;100.00;98661.50;5081410;28;20039;-75
2024/02/11 07:26:49;;;;;;;1.67;0.95;;;;;;;2.76;100.00;98664.41;5097939;28;20046;-74
2024/02/11 07:29:16;;;;;;;2.50;0.88;;;;;;;2.80;100.00;98656.91;5081384;28;20040;-74
2024/02/11 07:31:42;;;;;;;7.30;1.00;;;;;;;2.70;100.00;98665.13;5097923;28;20028;-77
2024/02/11 07:34:10;;;;;;;7.43;1.13;;;;;;;2.65;100.00;98664.81;5081087;28;20035;-77
2024/02/11 07:36:38;;;;;;;2.22;0.88;;;;;;;2.72;100.00;98670.22;5114971;28;20038;-76
2024/02/11 07:39:04;;;;;;;6.10;0.95;;;;;;;2.77;100.00;98674.00;5098055;28;20063;-76
2024/02/11 07:41:30;;;;;;;5.93;0.93;;;;;;;2.81;100.00;98675.31;5080723;28;20059;-76
2024/02/11 07:43:56;;;;;;;3.53;1.02;;;;;;;2.87;100.00;98684.38;5080623;28;20024;-77
2024/02/11 07:46:22;;;;;;;2.50;1.13;;;;;;;2.90;100.00;98685.88;5097633;28;20027;-77
2024/02/11 07:48:48;;;;;;;2.25;0.90;;;;;;;2.80;100.00;98692.22;5080884;28;20085;-76
2024/02/11 07:51:15;;;;;;;1.20;0.80;;;;;;;2.64;100.00;98697.63;5097442;28;20028;-77
2024/02/11 07:53:41;;;;;;;0.73;0.70;;;;;;;2.57;100.00;98699.38;5080793;28;20423;-76
2024/02/11 07:56:19;;;;;;;2.33;0.95;;;;;;;2.56;100.00;98703.81;5080716;28;20043;-76
2024/02/11 07:58:45;;;;;;;5.85;0.95;;;;;;;2.67;100.00;98693.81;5113979;28;20028;-76
2024/02/11 08:01:11;;;;;;;3.13;0.90;;;;;;;2.82;100.00;98694.69;5096989;28;20125;-76
2024/02/11 08:03:37;;;;;;;1.25;0.77;;;;;;;2.99;100.00;98698.06;5097145;28;20119;-76
2024/02/11 08:06:06;;;;;;;5.30;0.98;;;;;;;3.22;100.00;98706.84;5097429;28;20032;-76
2024/02/11 08:08:33;;;;;;;4.95;1.00;;;;;;;3.38;100.00;98700.56;5097144;28;20112;-76
2024/02/11 08:10:59;;;;;;;6.10;1.23;;;;;;;3.45;100.00;98706.81;5080556;28;20050;-76
2024/02/11 08:13:28;;;;;;;5.35;0.90;;;;;;;3.41;100.00;98712.66;5080200;28;20410;-76
2024/02/11 08:15:54;;;;;;;5.40;0.77;;;;;;;3.31;100.00;98710.25;5097342;28;20045;-76
2024/02/11 08:18:20;;;;;;;5.13;1.23;;;;;;;3.14;100.00;98712.22;5080429;28;20039;-76
2024/02/11 08:20:46;;;;;;;5.60;1.15;;;;;;;3.09;100.00;98727.84;5079995;28;20035;-76
2024/02/11 08:23:11;;;;;;;4.68;0.70;;;;;;;3.06;100.00;98720.25;5080143;28;20032;-76
2024/02/11 08:25:38;;;;;;;2.88;0.88;;;;;;;3.08;100.00;98724.38;5079914;28;20050;-76
2024/02/11 08:28:03;;;;;;;1.65;0.75;;;;;;;3.02;100.00;98724.28;5080091;28;20096;-76
2024/02/11 08:30:29;;;;;;;3.92;0.88;;;;;;;3.04;100.00;98722.25;5096723;28;20410;-76
2024/02/11 08:32:55;;;;;;;0.93;0.73;;;;;;;3.12;100.00;98724.84;5079747;28;20066;-76
2024/02/11 08:35:21;;;;;;;3.72;1.00;;;;;;;3.09;100.00;98722.53;5096744;28;20042;-76
2024/02/11 08:37:47;;;;;;;2.30;0.73;;;;;;;3.06;100.00;98731.69;5079904;28;20046;-76
2024/02/11 08:40:13;;;;;;;0.63;0.63;;;;;;;3.03;100.00;98726.72;5096266;28;20106;-76
2024/02/11 08:42:41;;;;;;;1.38;0.68;;;;;;;3.07;100.00;98728.03;5079877;28;20368;-76
2024/02/11 08:45:07;;;;;;;1.00;0.65;;;;;;;3.19;100.00;98733.75;5096591;28;20031;-76
2024/02/11 08:47:34;;;;;;;4.63;1.00;;;;;;;3.23;100.00;98732.41;5079511;28;20032;-76
2024/02/11 08:50:00;;;;;;;4.70;0.98;;;;;;;3.36;100.00;98730.97;5096348;28;20035;-77
2024/02/11 08:52:26;;;;;;;3.53;0.90;;;;;;;3.52;100.00;98728.19;5079319;28;20032;-76
2024/02/11 08:54:52;;;;;;;0.60;0.60;;;;;;;3.88;100.00;98746.09;5113080;28;20088;-76
2024/02/11 08:57:18;;;;;;;1.13;0.70;;;;;;;4.14;100.00;98750.97;5096037;28;20032;-76
2024/02/11 08:59:47;;;;;;;2.45;0.73;;;;;;;4.39;100.00;98762.13;5096032;28;20032;-76
2024/02/11 09:02:14;;;;;;;0.68;0.68;;;;;;;4.49;100.00;98746.69;5079649;28;20035;-76
2024/02/11 09:04:42;;;;;;;0.40;0.40;;;;;;;4.56;100.00;98739.63;5096369;28;20406;-76
2024/02/11 09:07:09;;;;;;;1.27;0.60;;;;;;;4.56;100.00;98741.47;5113323;28;20093;-76
2024/02/11 09:09:35;;;;;;;3.22;1.05;;;;;;;4.58;100.00;98742.94;5112705;28;20020;-76
2024/02/11 09:12:01;;;;;;;0.47;0.47;;;;;;;4.55;100.00;98739.81;5079252;28;20027;-76
2024/02/11 09:14:29;;;;;;;4.78;1.23;;;;;;;4.50;100.00;98751.03;5095838;28;20448;-76
2024/02/11 09:16:56;;;;;;;1.45;0.82;;;;;;;4.45;100.00;98756.09;5095805;28;20076;-76
2024/02/11 09:19:25;;;;;;;5.25;0.90;;;;;;;4.51;100.00;98763.31;5096177;28;20039;-76
2024/02/11 09:21:52;;;;;;;1.58;0.63;;;;;;;4.68;100.00;98758.59;5096092;28;20151;-76
2024/02/11 09:24:18;;;;;;;1.85;0.82;;;;;;;4.98;100.00;98766.53;5079271;28;20147;-76
2024/02/11 09:26:44;;;;;;;3.60;1.00;;;;;;;5.21;100.00;98764.53;5078909;28;20040;-76
2024/02/11 09:29:10;;;;;;;0.88;0.70;;;;;;;5.55;100.00;98789.63;5096087;28;20528;-76
2024/02/11 09:31:38;;;;;;;5.07;0.95;;;;;;;5.75;100.00;98787.13;5096245;28;20034;-76
2024/02/11 09:34:05;;;;;;;2.03;0.88;;;;;;;5.89;100.00;98782.72;5078560;28;20439;-76
2024/02/11 09:36:33;;;;;;;4.10;1.00;;;;;;;6.10;100.00;98792.53;5112661;28;20043;-76
2024/02/11 09:39:00;;;;;;;1.65;0.68;;;;;;;6.04;100.00;98782.66;5062484;28;20101;-76
2024/02/11 09:41:30;;;;;;;3.97;0.82;;;;;;;5.93;100.00;98789.31;5079243;28;20036;-76
2024/02/11 09:44:04;;;;;;;0.85;0.77;;;;;;;5.69;100.00;98787.91;5112097;28;20060;-76
2024/02/11 09:46:37;;;;;;;1.30;0.57;;;;;;;5.42;100.00;98790.31;5112756;28;20031;-76
2024/02/11 09:49:18;;;;;;;1.00;0.60;;;;;;;5.13;100.00;98793.09;5079474;28;20042;-76
2024/02/11 09:51:50;;;;;;;1.83;0.93;;;;;;;4.90;100.00;98801.28;5112622;28;20028;-76
2024/02/11 09:54:17;;;;;;;6.30;1.00;;;;;;;4.70;100.00;98804.50;5112384;28;20490;-76
2024/02/11 09:56:43;;;;;;;2.88;0.90;;;;;;;4.67;100.00;98810.19;5062257;28;20043;-76
2024/02/11 09:59:12;;;;;;;5.93;1.20;;;;;;;4.67;100.00;98806.72;5078906;28;20032;-76
2024/02/11 10:01:38;;;;;;;6.80;1.00;;;;;;;4.54;100.00;98807.38;5079294;28;20063;-76
2024/02/11 10:04:05;;;;;;;5.68;1.70;;;;;;;4.47;100.00;98814.44;5095707;28;20433;-76
2024/02/11 10:06:38;;;;;;;7.50;2.88;;;;;;;4.61;100.00;98816.28;5095199;28;20128;-76
2024/02/11 10:09:04;;;;;;;15.05;7.38;;;;;;;4.70;100.00;98814.31;5112222;28;20024;-76
2024/02/11 10:11:32;;;;;;;9.68;3.30;;;;;;;6.13;100.00;98816.97;5095660;28;20102;-76
2024/02/11 10:13:59;;;;;;;4.13;1.48;;;;;;;7.36;100.00;98817.13;5095763;28;20109;-76
2024/02/11 10:16:34;;;;;;;7.35;1.42;;;;;;;8.02;100.00;98815.50;5095162;28;20031;-77
2024/02/11 10:19:00;;;;;;;5.40;1.73;;;;;;;8.25;100.00;98810.56;5078492;28;20048;-76
2024/02/11 10:21:26;;;;;;;9.27;3.05;;;;;;;8.46;100.00;98814.06;5112324;28;20043;-77
2024/02/11 10:23:54;;;;;;;6.03;2.72;;;;;;;9.08;100.00;98809.09;5095478;28;20050;-77
2024/02/11 10:26:19;;;;;;;2.90;1.95;;;;;;;9.82;100.00;98816.47;5078847;28;20035;-76
2024/02/11 10:28:50;;;;;;;9.27;3.63;;;;;;;10.80;100.00;98817.63;5075896;28;20046;-74
2024/02/11 10:31:16;;;;;;;7.30;1.83;;;;;;;11.53;100.00;98815.81;5078647;28;20039;-74
2024/02/11 10:33:42;;;;;;;7.45;1.77;;;;;;;11.30;100.00;98827.31;5078357;28;20070;-74
2024/02/11 10:36:11;;;;;;;7.55;1.40;;;;;;;10.12;100.00;98822.00;5078406;28;20034;-76
2024/02/11 10:38:37;;;;;;;6.88;1.50;;;;;;;9.15;100.00;98817.91;5095259;28;20043;-76
2024/02/11 10:41:05;;;;;;;7.72;2.00;;;;;;;8.25;100.00;98815.09;5078568;28;20089;-75
2024/02/11 10:43:32;;;;;;;5.97;1.40;;;;;;;8.09;100.00;98821.69;5095495;28;20081;-76
2024/02/11 10:45:59;;;;;;;11.10;3.17;;;;;;;8.48;100.00;98828.06;5094954;28;20039;-76
2024/02/11 10:48:25;;;;;;;18.73;9.30;;;;;;;9.62;100.00;98826.53;5078101;28;20031;-76
2024/02/11 10:51:00;;;;;;;9.63;5.53;;;;;;;9.81;100.00;98822.84;5095363;28;20039;-76
2024/02/11 10:53:27;;;;;;;9.05;4.32;;;;;;;9.19;100.00;98825.31;5095242;28;20028;-76
2024/02/11 10:55:54;;;;;;;7.70;2.65;;;;;;;9.66;100.00;98823.19;5079670;28;20028;-76
2024/02/11 10:58:22;;;;;;;8.93;3.47;;;;;;;10.49;100.00;98824.78;5115732;28;20058;-74
2024/02/11 11:00:50;;;;;;;4.90;1.70;;;;;;;11.13;100.00;98827.97;5081975;28;20429;-76
2024/02/11 11:03:16;;;;;;;6.53;1.92;;;;;;;11.38;100.00;98829.72;5098188;28;20084;-74
2024/02/11 11:05:42;;;;;;;6.68;2.08;;;;;;;12.45;100.00;98818.09;5115610;28;20028;-77
2024/02/11 11:08:10;;;;;;;6.38;1.63;;;;;;;13.15;100.00;98826.03;5081600;28;20123;-74
2024/02/11 11:10:37;;;;;;;8.45;2.00;;;;;;;-146.42;100.00;66673.91;5098339;28;20422;-74
2024/02/11 11:13:03;;;;;;;4.65;1.88;;;;;;;13.26;100.00;98824.41;5098513;28;20036;-75
2024/02/11 11:15:31;;;;;;;7.22;1.60;;;;;;;11.90;100.00;98838.06;5098254;28;20047;-75
2024/02/11 11:18:02;;;;;;;5.80;1.60;;;;;;;10.65;100.00;98846.72;5082226;28;20035;-76
2024/02/11 11:20:27;;;;;;;4.47;1.42;;;;;;;10.20;100.00;98850.44;5098300;28;20042;-76
2024/02/11 11:22:57;;;;;;;2.58;1.25;;;;;;;9.39;100.00;98859.25;5098025;28;20403;-76
2024/02/11 11:25:34;;;;;;;4.05;0.98;;;;;;;9.82;100.00;98853.22;5081730;28;20387;-76
2024/02/11 11:28:13;;;;;;;4.78;1.92;;;;;;;9.80;100.00;98856.13;5081848;28;20130;-76
2024/02/11 11:30:39;;;;;;;2.53;0.90;;;;;;;9.68;100.00;98861.38;5098372;28;20089;-76
2024/02/11 11:33:05;;;;;;;1.13;0.60;;;;;;;9.84;100.00;98851.13;5081681;28;20133;-76